Time;durP1;ratioP1;P1;durP2;ratioP2;P2;SDS_P1;SDS_P2;PMS_P1;PMS_P2;Temp;Humidity;BMP_temperature;BMP_pressure;BME280_temperature;BME280_humidity;BME280_pressure;Samples;Min_cycle;Max_cycle;Signal;HPM_P1;HPM_P2
2022/01/02 00:00:05;;;;;;;;;;;19.60;57.80;;;;;;5051050;28;1650;-70
2022/01/02 00:02:31;;;;;;;;;;;19.60;57.80;;;;;;5047700;28;1487;-70
2022/01/02 00:05:07;;;;;;;;;;;19.60;57.80;;;;;;5050563;28;1791;-70
2022/01/02 00:07:37;;;;;;;;;;;19.60;57.80;;;;;;5052150;28;1487;-69
2022/01/02 00:10:03;;;;;;;;;;;19.60;57.90;;;;;;5055483;28;1430;-69
2022/01/02 00:12:29;;;;;;;;;;;19.60;57.90;;;;;;5051172;28;1604;-69
2022/01/02 00:14:54;;;;;;;;;;;19.50;57.90;;;;;;5060287;28;1898;-69
2022/01/02 00:17:23;;;;;;;;;;;19.60;57.90;;;;;;5054525;28;1697;-69
2022/01/02 00:19:53;;;;;;;;;;;19.50;57.90;;;;;;5051003;28;1675;-69
2022/01/02 00:22:19;;;;;;;;;;;19.60;58.00;;;;;;5052132;28;1202;-69
2022/01/02 00:24:45;;;;;;;;;;;19.50;58.00;;;;;;5050637;28;1331;-69
2022/01/02 00:27:11;;;;;;;;;;;19.50;58.00;;;;;;5052769;28;1374;-69
2022/01/02 00:29:37;;;;;;;;;;;19.50;58.00;;;;;;5055891;28;1668;-69
2022/01/02 00:32:02;;;;;;;;;;;19.50;58.00;;;;;;5055649;28;1576;-69
2022/01/02 00:34:28;;;;;;;;;;;19.50;58.00;;;;;;5054092;28;1894;-69
2022/01/02 00:36:53;;;;;;;;;;;19.50;58.60;;;;;;5055320;28;1294;-69
2022/01/02 00:39:19;;;;;;;;;;;19.50;58.10;;;;;;5055527;28;1063;-69
2022/01/02 00:41:47;;;;;;;;;;;19.50;58.10;;;;;;5055448;28;1314;-69
2022/01/02 00:44:25;;;;;;;;;;;19.50;58.10;;;;;;5064890;28;1392;-69
2022/01/02 00:46:52;;;;;;;;;;;19.50;58.10;;;;;;5073666;28;1314;-70
2022/01/02 00:49:21;;;;;;;;;;;19.50;58.20;;;;;;5048282;22;3556;-70
2022/01/02 00:51:49;;;;;;;;;;;19.50;58.20;;;;;;5049590;28;1024;-70
2022/01/02 00:54:15;;;;;;;;;;;19.40;58.10;;;;;;5008956;28;1980;-69
2022/01/02 00:56:42;;;;;;;;;;;19.40;58.10;;;;;;5035799;28;1355;-71
2022/01/02 00:59:08;;;;;;;;;;;19.40;58.20;;;;;;5051571;28;1287;-70
2022/01/02 01:01:33;;;;;;;;;;;19.40;58.20;;;;;;5015278;28;1538;-70
2022/01/02 01:03:59;;;;;;;;;;;19.40;58.20;;;;;;5033132;28;1588;-70
2022/01/02 01:06:25;;;;;;;;;;;19.40;58.20;;;;;;5030779;28;1176;-71
2022/01/02 01:08:57;;;;;;;;;;;19.40;58.20;;;;;;5036996;28;1579;-70
2022/01/02 01:11:26;;;;;;;;;;;19.40;58.30;;;;;;5046586;28;1079;-69
2022/01/02 01:13:52;;;;;;;;;;;19.40;58.30;;;;;;5015673;28;1957;-70
2022/01/02 01:16:18;;;;;;;;;;;19.40;58.30;;;;;;5025721;28;1072;-69
2022/01/02 01:18:44;;;;;;;;;;;19.40;58.30;;;;;;5014833;28;1321;-69
2022/01/02 01:21:09;;;;;;;;;;;19.40;58.30;;;;;;5007373;28;1262;-70
2022/01/02 01:23:35;;;;;;;;;;;19.40;58.30;;;;;;4994855;28;1323;-71
2022/01/02 01:26:06;;;;;;;;;;;19.40;58.30;;;;;;4995634;28;1026;-70
2022/01/02 01:28:31;;;;;;;;;;;19.40;58.30;;;;;;5025320;28;1272;-70
2022/01/02 01:30:56;;;;;;;;;;;19.40;58.40;;;;;;4995563;28;1325;-69
2022/01/02 01:33:22;;;;;;;;;;;19.40;58.40;;;;;;5042015;28;1926;-71
2022/01/02 01:35:47;;;;;;;;;;;19.30;58.30;;;;;;5015346;28;1344;-71
2022/01/02 01:38:13;;;;;;;;;;;19.30;58.30;;;;;;5014292;28;1313;-70
2022/01/02 01:41:11;;;;;;;;;;;19.40;58.40;;;;;;5014326;28;1076;-69
2022/01/02 01:43:39;;;;;;;;;;;19.30;58.40;;;;;;4967849;28;1335;-69
2022/01/02 01:46:05;;;;;;;;;;;19.40;58.50;;;;;;5015170;28;1080;-69
2022/01/02 01:48:31;;;;;;;;;;;19.30;58.40;;;;;;5040843;28;1348;-69
2022/01/02 01:50:56;;;;;;;;;;;19.40;58.50;;;;;;5007332;28;1557;-69
2022/01/02 01:53:21;;;;;;;;;;;19.30;58.40;;;;;;5007532;28;1906;-69
2022/01/02 01:55:47;;;;;;;;;;;19.30;58.50;;;;;;5007675;28;1271;-69
2022/01/02 01:58:12;;;;;;;;;;;19.30;58.50;;;;;;4996197;28;1382;-70
2022/01/02 02:00:38;;;;;;;;;;;19.30;58.80;;;;;;5007553;28;1389;-69
2022/01/02 02:03:03;;;;;;;;;;;19.30;58.50;;;;;;5014366;28;905;-69
2022/01/02 02:05:29;;;;;;;;;;;19.30;58.50;;;;;;5000724;28;1426;-70
2022/01/02 02:07:54;;;;;;;;;;;19.30;59.10;;;;;;4995310;28;1296;-70
2022/01/02 02:10:33;;;;;;;;;;;19.30;58.50;;;;;;5007655;28;1195;-69
2022/01/02 02:12:58;;;;;;;;;;;19.30;58.50;;;;;;5000990;28;1318;-70
2022/01/02 02:15:24;;;;;;;;;;;19.30;58.60;;;;;;5046295;28;1455;-70
2022/01/02 02:17:50;;;;;;;;;;;19.30;58.60;;;;;;5014861;28;1477;-71
2022/01/02 02:20:16;;;;;;;;;;;19.30;58.60;;;;;;5000236;28;1061;-71
2022/01/02 02:22:43;;;;;;;;;;;19.30;58.60;;;;;;5045436;28;914;-70
2022/01/02 02:25:15;;;;;;;;;;;19.30;58.60;;;;;;5045449;28;1373;-69
2022/01/02 02:27:47;;;;;;;;;;;19.30;58.60;;;;;;5045843;28;1455;-70
2022/01/02 02:30:12;;;;;;;;;;;19.30;58.60;;;;;;5010355;28;1164;-69
2022/01/02 02:32:38;;;;;;;;;;;19.30;58.60;;;;;;4994339;28;1359;-68
2022/01/02 02:35:03;;;;;;;;;;;19.20;58.60;;;;;;5025047;28;1951;-70
2022/01/02 02:37:30;;;;;;;;;;;19.30;58.60;;;;;;5026082;28;1370;-70
2022/01/02 02:39:55;;;;;;;;;;;19.30;58.60;;;;;;5025424;28;1476;-70
2022/01/02 02:42:34;;;;;;;;;;;19.30;58.60;;;;;;4994260;28;1446;-70
2022/01/02 02:48:57;;;;;;;;;;;19.30;58.50;;;;;;5010629;28;1427;-70
2022/01/02 02:50:37;;;;;;;;;;;19.40;58.30;;;;;;5013063;28;1182;-72
2022/01/02 02:53:02;;;;;;;;;;;19.40;58.20;;;;;;5013128;28;1969;-71
2022/01/02 02:55:31;;;;;;;;;;;19.50;58.10;;;;;;5013844;28;1103;-70
2022/01/02 02:58:08;;;;;;;;;;;19.60;57.90;;;;;;5013980;28;1519;-71
2022/01/02 03:00:34;;;;;;;;;;;19.70;57.80;;;;;;5012103;28;1299;-71
2022/01/02 03:02:59;;;;;;;;;;;19.70;57.60;;;;;;5012980;28;1205;-72
2022/01/02 03:05:25;;;;;;;;;;;19.80;57.40;;;;;;5014092;28;1482;-71
2022/01/02 03:07:50;;;;;;;;;;;19.80;57.30;;;;;;5008137;28;1299;-71
2022/01/02 03:10:17;;;;;;;;;;;19.90;57.20;;;;;;5044162;28;1204;-69
2022/01/02 03:12:42;;;;;;;;;;;20.00;57.10;;;;;;4993793;28;1410;-72
2022/01/02 03:15:07;;;;;;;;;;;20.00;57.00;;;;;;5017067;28;1967;-70
2022/01/02 03:17:33;;;;;;;;;;;20.00;56.90;;;;;;5014454;28;1396;-70
2022/01/02 03:19:58;;;;;;;;;;;20.00;56.80;;;;;;5013118;28;1166;-70
2022/01/02 03:22:24;;;;;;;;;;;20.00;56.70;;;;;;5013164;28;1415;-71
2022/01/02 03:24:51;;;;;;;;;;;20.10;56.70;;;;;;5011264;28;1653;-70
2022/01/02 03:27:17;;;;;;;;;;;20.10;57.10;;;;;;5012689;28;1370;-71
2022/01/02 03:29:43;;;;;;;;;;;20.10;56.60;;;;;;5013115;28;1508;-71
2022/01/02 03:32:08;;;;;;;;;;;20.10;56.60;;;;;;5012955;28;1682;-71
2022/01/02 03:34:34;;;;;;;;;;;20.10;56.50;;;;;;5012293;28;1898;-72
2022/01/02 03:36:59;;;;;;;;;;;20.10;56.50;;;;;;4993535;28;1160;-71
2022/01/02 03:39:25;;;;;;;;;;;20.10;56.50;;;;;;4993059;28;1201;-71
2022/01/02 03:41:50;;;;;;;;;;;20.10;56.50;;;;;;5010000;28;1124;-71
2022/01/02 03:44:16;;;;;;;;;;;20.10;56.50;;;;;;5012167;28;1118;-71
2022/01/02 03:46:41;;;;;;;;;;;20.20;56.50;;;;;;4999486;28;950;-72
2022/01/02 03:49:06;;;;;;;;;;;20.10;56.50;;;;;;4999927;28;1213;-71
2022/01/02 03:51:32;;;;;;;;;;;20.10;56.50;;;;;;5010605;28;807;-72
2022/01/02 03:53:57;;;;;;;;;;;20.10;56.40;;;;;;5012161;28;1970;-71
2022/01/02 03:56:23;;;;;;;;;;;20.10;56.50;;;;;;5044496;28;1128;-72
2022/01/02 03:58:48;;;;;;;;;;;20.20;56.50;;;;;;5012437;28;1216;-71
2022/01/02 04:01:14;;;;;;;;;;;20.10;56.40;;;;;;5012831;28;1393;-71
2022/01/02 04:03:39;;;;;;;;;;;20.10;56.40;;;;;;5018347;28;927;-71
2022/01/02 04:06:04;;;;;;;;;;;20.10;56.40;;;;;;5014937;28;1187;-71
2022/01/02 04:08:30;;;;;;;;;;;20.20;56.50;;;;;;5003903;28;1291;-72
2022/01/02 04:10:55;;;;;;;;;;;20.10;56.50;;;;;;5021075;28;1142;-72
2022/01/02 04:13:21;;;;;;;;;;;20.10;56.80;;;;;;5018304;28;1902;-71
2022/01/02 04:15:46;;;;;;;;;;;20.20;56.50;;;;;;5059610;28;1091;-72
2022/01/02 04:18:12;;;;;;;;;;;20.10;56.50;;;;;;4999310;28;1256;-72
2022/01/02 04:20:37;;;;;;;;;;;20.20;56.50;;;;;;5003537;28;1076;-71
2022/01/02 04:23:02;;;;;;;;;;;20.10;56.50;;;;;;5018555;28;1146;-71
2022/01/02 04:25:28;;;;;;;;;;;20.10;56.50;;;;;;5000699;28;1057;-71
2022/01/02 04:27:53;;;;;;;;;;;20.10;56.50;;;;;;5009541;28;1365;-71
2022/01/02 04:30:19;;;;;;;;;;;20.10;56.50;;;;;;5018798;28;1104;-72
2022/01/02 04:32:48;;;;;;;;;;;20.10;56.50;;;;;;5018391;28;1052;-71
2022/01/02 04:35:13;;;;;;;;;;;20.10;56.50;;;;;;5001687;28;1949;-71
2022/01/02 04:37:39;;;;;;;;;;;20.20;56.60;;;;;;5009881;28;1283;-71
2022/01/02 04:40:05;;;;;;;;;;;20.10;56.50;;;;;;5013532;28;1175;-71
2022/01/02 04:42:30;;;;;;;;;;;20.10;56.50;;;;;;5009724;28;1147;-71
2022/01/02 04:44:55;;;;;;;;;;;20.10;56.50;;;;;;5014233;28;1064;-71
2022/01/02 04:47:21;;;;;;;;;;;20.10;56.50;;;;;;5030657;28;1330;-71
2022/01/02 04:49:46;;;;;;;;;;;20.10;56.60;;;;;;5014211;28;1223;-71
2022/01/02 04:52:12;;;;;;;;;;;20.10;56.60;;;;;;4999040;28;1036;-71
2022/01/02 04:54:37;;;;;;;;;;;20.10;56.50;;;;;;4998596;28;1969;-71
2022/01/02 04:57:03;;;;;;;;;;;20.10;56.60;;;;;;4999486;28;1131;-71
2022/01/02 04:59:28;;;;;;;;;;;20.10;56.60;;;;;;4997084;28;1206;-70
2022/01/02 05:01:54;;;;;;;;;;;20.10;56.60;;;;;;5009048;28;1170;-72
2022/01/02 05:04:19;;;;;;;;;;;20.10;56.60;;;;;;5018324;28;1016;-71
2022/01/02 05:06:45;;;;;;;;;;;20.10;56.60;;;;;;4997611;28;1189;-70
2022/01/02 05:09:10;;;;;;;;;;;20.10;56.60;;;;;;5019911;28;1291;-71
2022/01/02 05:11:36;;;;;;;;;;;20.10;56.70;;;;;;5017981;28;1041;-71
2022/01/02 05:14:01;;;;;;;;;;;20.10;56.70;;;;;;5021032;28;1910;-71
2022/01/02 05:16:26;;;;;;;;;;;20.10;56.70;;;;;;5024708;28;1059;-71
2022/01/02 05:18:52;;;;;;;;;;;20.10;56.70;;;;;;5047092;28;1317;-71
2022/01/02 05:21:17;;;;;;;;;;;20.10;56.70;;;;;;5015489;28;1120;-71
2022/01/02 05:23:43;;;;;;;;;;;20.10;56.70;;;;;;4999848;28;1148;-71
2022/01/02 05:26:08;;;;;;;;;;;20.10;56.70;;;;;;5015790;28;1123;-72
2022/01/02 05:28:34;;;;;;;;;;;20.10;56.70;;;;;;5015115;28;1373;-71
2022/01/02 05:30:59;;;;;;;;;;;20.10;56.70;;;;;;5014873;28;1378;-71
2022/01/02 05:33:24;;;;;;;;;;;20.10;56.70;;;;;;5012139;28;1957;-71
2022/01/02 05:35:50;;;;;;;;;;;20.10;56.70;;;;;;5004370;28;1163;-71
2022/01/02 05:38:18;;;;;;;;;;;20.00;56.70;;;;;;5015164;28;1340;-72
2022/01/02 05:40:43;;;;;;;;;;;20.10;56.70;;;;;;5015073;28;1025;-71
2022/01/02 05:43:09;;;;;;;;;;;20.00;56.70;;;;;;5014248;28;1170;-71
2022/01/02 05:45:34;;;;;;;;;;;20.00;56.70;;;;;;5013030;28;1156;-71
2022/01/02 05:48:05;;;;;;;;;;;20.10;56.80;;;;;;5014888;28;1250;-72
2022/01/02 05:50:31;;;;;;;;;;;20.10;56.80;;;;;;5005438;28;1447;-71
2022/01/02 05:52:56;;;;;;;;;;;20.10;56.80;;;;;;5026328;28;1123;-72
2022/01/02 05:55:22;;;;;;;;;;;20.00;56.70;;;;;;4995315;28;1902;-71
2022/01/02 05:57:47;;;;;;;;;;;20.00;56.80;;;;;;4994828;28;1363;-71
2022/01/02 06:00:13;;;;;;;;;;;20.10;56.80;;;;;;4995034;28;1123;-70
2022/01/02 06:02:38;;;;;;;;;;;20.00;56.80;;;;;;5010814;28;1084;-71
2022/01/02 06:05:04;;;;;;;;;;;20.00;56.80;;;;;;5013984;28;1084;-71
2022/01/02 06:07:32;;;;;;;;;;;20.00;56.80;;;;;;5014663;28;1385;-71
2022/01/02 06:09:58;;;;;;;;;;;20.00;56.80;;;;;;5018435;28;1107;-71
2022/01/02 06:12:23;;;;;;;;;;;20.00;56.80;;;;;;5014191;28;1084;-71
2022/01/02 06:14:49;;;;;;;;;;;20.00;56.80;;;;;;5054812;28;1940;-71
2022/01/02 06:17:14;;;;;;;;;;;20.00;56.80;;;;;;5016690;28;1276;-71
2022/01/02 06:19:39;;;;;;;;;;;20.00;56.80;;;;;;5013898;28;1134;-70
2022/01/02 06:22:05;;;;;;;;;;;20.00;56.80;;;;;;5001168;28;934;-71
2022/01/02 06:24:30;;;;;;;;;;;20.00;56.80;;;;;;5011724;28;1160;-71
2022/01/02 06:26:56;;;;;;;;;;;20.00;56.80;;;;;;5013689;28;1024;-71
2022/01/02 06:29:21;;;;;;;;;;;20.00;56.80;;;;;;5014212;28;1150;-71
2022/01/02 06:31:47;;;;;;;;;;;20.00;56.80;;;;;;5011865;28;1060;-71
2022/01/02 06:34:12;;;;;;;;;;;20.00;56.80;;;;;;4993726;28;1903;-71
2022/01/02 06:36:37;;;;;;;;;;;20.00;56.90;;;;;;5025901;28;1330;-71
2022/01/02 06:39:03;;;;;;;;;;;20.00;56.90;;;;;;5002527;28;1193;-72
2022/01/02 06:41:28;;;;;;;;;;;20.00;56.90;;;;;;5013645;28;1135;-70
2022/01/02 06:43:54;;;;;;;;;;;20.00;56.90;;;;;;5013759;28;1130;-71
2022/01/02 06:46:19;;;;;;;;;;;20.00;56.90;;;;;;5032242;28;1134;-71
2022/01/02 06:48:45;;;;;;;;;;;20.00;56.90;;;;;;5055384;22;1901;-69
2022/01/02 06:51:10;;;;;;;;;;;20.00;56.90;;;;;;5051348;28;988;-69
2022/01/02 06:53:36;;;;;;;;;;;20.00;56.90;;;;;;5052481;28;1964;-69
2022/01/02 06:56:01;;;;;;;;;;;20.00;56.90;;;;;;5051617;28;1123;-68
2022/01/02 06:58:27;;;;;;;;;;;20.00;56.90;;;;;;5051911;28;1460;-69
2022/01/02 07:00:52;;;;;;;;;;;20.00;56.90;;;;;;5053004;28;1336;-69
2022/01/02 07:03:17;;;;;;;;;;;20.00;56.90;;;;;;5051366;28;1409;-69
2022/01/02 07:05:43;;;;;;;;;;;20.00;56.90;;;;;;5038243;28;1142;-68
2022/01/02 07:08:08;;;;;;;;;;;20.00;56.90;;;;;;5033148;28;1286;-68
2022/01/02 07:10:34;;;;;;;;;;;20.00;57.00;;;;;;5041704;28;1189;-68
2022/01/02 07:13:00;;;;;;;;;;;20.00;57.00;;;;;;5032336;28;1087;-69
2022/01/02 07:15:25;;;;;;;;;;;20.00;56.90;;;;;;5059168;28;1960;-69
2022/01/02 07:17:51;;;;;;;;;;;20.00;56.90;;;;;;5032981;28;1380;-69
2022/01/02 07:20:16;;;;;;;;;;;20.00;56.90;;;;;;5032487;28;1106;-68
2022/01/02 07:22:42;;;;;;;;;;;20.00;56.90;;;;;;5032502;28;1055;-69
2022/01/02 07:25:08;;;;;;;;;;;20.00;57.00;;;;;;5032463;28;1272;-69
2022/01/02 07:27:33;;;;;;;;;;;20.00;56.90;;;;;;5032580;28;1287;-69
2022/01/02 07:29:59;;;;;;;;;;;20.00;56.90;;;;;;5032811;28;1381;-69
2022/01/02 07:32:25;;;;;;;;;;;20.00;56.90;;;;;;5031594;28;1130;-69
2022/01/02 07:34:50;;;;;;;;;;;20.00;56.90;;;;;;5030994;28;1894;-69
2022/01/02 07:37:15;;;;;;;;;;;20.00;56.90;;;;;;5031780;28;1258;-69
2022/01/02 07:39:41;;;;;;;;;;;20.00;56.90;;;;;;5032897;28;1208;-69
2022/01/02 07:42:07;;;;;;;;;;;20.10;56.80;;;;;;5030858;28;1288;-69
2022/01/02 07:44:32;;;;;;;;;;;20.20;56.70;;;;;;5037574;28;2307;-70
2022/01/02 07:46:57;;;;;;;;;;;20.30;56.60;;;;;;5043309;28;1063;-71
2022/01/02 07:49:23;;;;;;;;;;;20.40;56.50;;;;;;5038160;28;1280;-70
2022/01/02 07:51:48;;;;;;;;;;;20.50;56.30;;;;;;5043236;28;1955;-71
2022/01/02 07:54:14;;;;;;;;;;;20.60;56.10;;;;;;5048079;28;1910;-71
2022/01/02 07:56:39;;;;;;;;;;;20.70;55.80;;;;;;5047692;28;1337;-69
2022/01/02 07:59:05;;;;;;;;;;;20.80;55.60;;;;;;5051280;28;1307;-69
2022/01/02 08:01:30;;;;;;;;;;;20.90;55.40;;;;;;5039003;28;1472;-69
2022/01/02 08:03:56;;;;;;;;;;;21.00;55.20;;;;;;5051740;28;1289;-69
2022/01/02 08:06:21;;;;;;;;;;;21.10;55.00;;;;;;5052553;28;1296;-69
2022/01/02 08:08:47;;;;;;;;;;;21.10;54.70;;;;;;5038889;28;1296;-69
2022/01/02 08:11:15;;;;;;;;;;;21.20;54.60;;;;;;5032626;28;1369;-69
2022/01/02 08:13:41;;;;;;;;;;;21.30;55.10;;;;;;5031357;28;1963;-69
2022/01/02 08:16:06;;;;;;;;;;;21.30;54.30;;;;;;5058842;28;1442;-69
2022/01/02 08:18:32;;;;;;;;;;;21.40;54.30;;;;;;5030648;28;1290;-69
2022/01/02 08:20:57;;;;;;;;;;;21.40;54.20;;;;;;5032108;28;1363;-69
2022/01/02 08:23:23;;;;;;;;;;;21.40;54.10;;;;;;5030542;28;1298;-69
2022/01/02 08:25:49;;;;;;;;;;;21.50;54.10;;;;;;5031916;28;1289;-69
2022/01/02 08:28:15;;;;;;;;;;;21.50;54.10;;;;;;5032136;28;1347;-70
2022/01/02 08:30:43;;;;;;;;;;;21.50;54.10;;;;;;5031831;28;1372;-69
2022/01/02 08:33:09;;;;;;;;;;;21.50;54.10;;;;;;5031509;28;1356;-69
2022/01/02 08:35:34;;;;;;;;;;;21.50;54.10;;;;;;5030849;28;1945;-69
2022/01/02 08:37:59;;;;;;;;;;;21.50;54.10;;;;;;5031966;28;1282;-69
2022/01/02 08:40:25;;;;;;;;;;;21.50;54.10;;;;;;5031251;28;1332;-69
2022/01/02 08:42:50;;;;;;;;;;;21.50;54.10;;;;;;5031577;28;1075;-69
2022/01/02 08:45:16;;;;;;;;;;;21.50;54.10;;;;;;5031773;28;1050;-69
2022/01/02 08:47:44;;;;;;;;;;;21.50;54.10;;;;;;5032228;28;1334;-70
2022/01/02 08:50:09;;;;;;;;;;;21.40;54.10;;;;;;5035772;28;1190;-69
2022/01/02 08:52:35;;;;;;;;;;;21.40;54.10;;;;;;5035623;28;1335;-69
2022/01/02 08:55:00;;;;;;;;;;;21.40;54.20;;;;;;5034357;28;1949;-69
2022/01/02 08:57:25;;;;;;;;;;;21.40;54.20;;;;;;5035398;28;1077;-69
2022/01/02 08:59:51;;;;;;;;;;;21.40;54.30;;;;;;5035546;28;1414;-69
2022/01/02 09:02:16;;;;;;;;;;;21.40;54.30;;;;;;5035106;28;1197;-69
2022/01/02 09:04:42;;;;;;;;;;;21.30;54.40;;;;;;5054417;28;1442;-69
2022/01/02 09:07:07;;;;;;;;;;;21.30;54.40;;;;;;5055546;28;1297;-69
2022/01/02 09:09:33;;;;;;;;;;;21.30;54.50;;;;;;5053131;28;1278;-69
2022/01/02 09:11:59;;;;;;;;;;;21.30;54.50;;;;;;5034879;28;1288;-69
2022/01/02 09:14:24;;;;;;;;;;;21.30;54.50;;;;;;5046020;28;1902;-69
2022/01/02 09:16:49;;;;;;;;;;;21.20;54.50;;;;;;5049549;28;1277;-69
2022/01/02 09:19:15;;;;;;;;;;;21.20;54.60;;;;;;5034904;28;1341;-69
2022/01/02 09:21:40;;;;;;;;;;;21.20;54.60;;;;;;5035101;28;1352;-69
2022/01/02 09:24:06;;;;;;;;;;;21.20;54.70;;;;;;5033767;28;1264;-69
2022/01/02 09:26:31;;;;;;;;;;;21.20;54.80;;;;;;5035425;28;1380;-69
2022/01/02 09:28:57;;;;;;;;;;;21.20;54.80;;;;;;5035002;28;1347;-69
2022/01/02 09:31:22;;;;;;;;;;;21.20;54.80;;;;;;5035365;28;1034;-69
2022/01/02 09:33:48;;;;;;;;;;;21.10;54.80;;;;;;5033508;28;1941;-69
2022/01/02 09:36:13;;;;;;;;;;;21.10;54.90;;;;;;5034975;28;1410;-69
2022/01/02 09:38:38;;;;;;;;;;;21.10;54.90;;;;;;5033476;28;1354;-69
2022/01/02 09:41:04;;;;;;;;;;;21.10;54.90;;;;;;5034817;28;1149;-69
2022/01/02 09:43:30;;;;;;;;;;;21.10;55.00;;;;;;5032937;28;1304;-69
2022/01/02 09:45:55;;;;;;;;;;;21.10;55.00;;;;;;5034087;28;1271;-69
2022/01/02 09:48:21;;;;;;;;;;;21.10;55.10;;;;;;5033427;28;1350;-69
2022/01/02 09:50:47;;;;;;;;;;;21.10;55.20;;;;;;5034519;28;1289;-69
2022/01/02 09:53:12;;;;;;;;;;;21.00;55.20;;;;;;5034499;28;1290;-69
2022/01/02 09:55:38;;;;;;;;;;;21.00;55.20;;;;;;5033685;28;1906;-69
2022/01/02 09:58:10;;;;;;;;;;;21.00;55.20;;;;;;5034095;28;1289;-69
2022/01/02 10:00:35;;;;;;;;;;;21.00;55.30;;;;;;5032334;28;1067;-69
2022/01/02 10:03:04;;;;;;;;;;;21.00;55.30;;;;;;5038192;28;1214;-69
2022/01/02 10:05:48;;;;;;;;;;;21.00;55.40;;;;;;5054646;28;1396;-69
2022/01/02 10:08:20;;;;;;;;;;;20.90;55.30;;;;;;5054020;28;1352;-69
2022/01/02 10:10:45;;;;;;;;;;;20.90;55.40;;;;;;5034098;28;1075;-69
2022/01/02 10:13:10;;;;;;;;;;;20.90;55.40;;;;;;5033713;28;1079;-69
2022/01/02 10:15:36;;;;;;;;;;;20.90;55.40;;;;;;5059849;28;1957;-69
2022/01/02 10:18:05;;;;;;;;;;;20.90;55.40;;;;;;5033546;28;1388;-69
2022/01/02 10:20:40;;;;;;;;;;;20.90;55.50;;;;;;5032672;28;1341;-69
2022/01/02 10:23:12;;;;;;;;;;;20.90;55.50;;;;;;5033412;28;1296;-69
2022/01/02 10:25:38;;;;;;;;;;;20.90;55.60;;;;;;5033840;28;1257;-69
2022/01/02 10:28:25;;;;;;;;;;;20.90;55.60;;;;;;5032534;28;1400;-69
2022/01/02 10:30:51;;;;;;;;;;;20.80;55.60;;;;;;5033287;28;1403;-69
2022/01/02 10:33:16;;;;;;;;;;;20.80;55.60;;;;;;5033271;28;1055;-69
2022/01/02 10:35:42;;;;;;;;;;;20.80;55.60;;;;;;5033690;28;1890;-69
2022/01/02 10:38:13;;;;;;;;;;;20.80;55.70;;;;;;5033679;28;1197;-69
2022/01/02 10:40:39;;;;;;;;;;;20.90;55.70;;;;;;5033440;28;1118;-69
2022/01/02 10:43:31;;;;;;;;;;;20.90;55.60;;;;;;5033777;28;1423;-69
2022/01/02 10:46:06;;;;;;;;;;;20.90;55.60;;;;;;5030105;28;1102;-69
2022/01/02 10:48:35;;;;;;;;;;;20.90;55.50;;;;;;5033506;28;1405;-69
2022/01/02 10:51:24;;;;;;;;;;;21.00;55.50;;;;;;5025863;28;1072;-69
2022/01/02 10:53:57;;;;;;;;;;;21.00;55.40;;;;;;5032472;28;1910;-69
2022/01/02 10:56:23;;;;;;;;;;;21.10;55.40;;;;;;5033257;28;1395;-68
2022/01/02 10:58:48;;;;;;;;;;;21.10;55.30;;;;;;5032066;28;1476;-69
2022/01/02 11:01:14;;;;;;;;;;;21.10;55.20;;;;;;5033194;28;1349;-70
2022/01/02 11:03:39;;;;;;;;;;;21.10;55.20;;;;;;5044066;28;1397;-69
2022/01/02 11:06:06;;;;;;;;;;;21.10;55.10;;;;;;5053343;28;1266;-69
2022/01/02 11:08:33;;;;;;;;;;;21.10;55.00;;;;;;5054226;28;1300;-69
2022/01/02 11:10:59;;;;;;;;;;;21.10;55.00;;;;;;5036727;28;1634;-69
2022/01/02 11:13:24;;;;;;;;;;;21.20;55.00;;;;;;5051172;28;1958;-69
2022/01/02 11:15:50;;;;;;;;;;;21.20;55.00;;;;;;5052651;28;1119;-69
2022/01/02 11:18:15;;;;;;;;;;;21.20;55.00;;;;;;5064310;28;1317;-68
2022/01/02 11:20:40;;;;;;;;;;;21.20;55.00;;;;;;5033752;28;1163;-69
2022/01/02 11:23:22;;;;;;;;;;;21.20;55.00;;;;;;5034818;28;1066;-69
2022/01/02 11:25:50;;;;;;;;;;;21.20;55.60;;;;;;5040172;28;1197;-69
2022/01/02 11:28:29;;;;;;;;;;;21.20;55.00;;;;;;5038226;28;1298;-69
2022/01/02 11:30:54;;;;;;;;;;;21.20;55.00;;;;;;5031512;28;1305;-69
2022/01/02 11:33:28;;;;;;;;;;;21.10;55.00;;;;;;5032003;28;1281;-69
2022/01/02 11:35:56;;;;;;;;;;;21.10;55.00;;;;;;5032843;28;1056;-69
2022/01/02 11:38:22;;;;;;;;;;;21.10;55.00;;;;;;5030974;28;1361;-69
2022/01/02 11:40:53;;;;;;;;;;;21.10;55.10;;;;;;5032309;28;1349;-69
2022/01/02 11:43:38;;;;;;;;;;;21.10;55.10;;;;;;5032268;28;1365;-69
2022/01/02 11:46:13;;;;;;;;;;;21.10;55.20;;;;;;5032461;28;1130;-69
2022/01/02 11:48:39;;;;;;;;;;;21.10;55.20;;;;;;5031325;28;1605;-69
2022/01/02 11:51:04;;;;;;;;;;;21.10;55.20;;;;;;5030894;28;1334;-69
2022/01/02 11:53:34;;;;;;;;;;;21.10;55.30;;;;;;5031669;28;1910;-69
2022/01/02 11:55:59;;;;;;;;;;;21.00;55.30;;;;;;5032451;28;1296;-69
2022/01/02 11:58:46;;;;;;;;;;;21.00;55.30;;;;;;5031965;28;1414;-69
2022/01/02 12:01:32;;;;;;;;;;;21.00;55.30;;;;;;5031046;28;1324;-69
2022/01/02 12:03:57;;;;;;;;;;;21.00;55.40;;;;;;5041439;28;1312;-69
2022/01/02 12:06:24;;;;;;;;;;;21.00;55.40;;;;;;5051956;28;1269;-69
2022/01/02 12:08:53;;;;;;;;;;;21.00;55.40;;;;;;5056299;28;1392;-69
2022/01/02 12:11:30;;;;;;;;;;;21.00;55.50;;;;;;5031942;28;1255;-68
2022/01/02 12:14:02;;;;;;;;;;;21.00;55.50;;;;;;5035539;28;1959;-69
2022/01/02 12:16:34;;;;;;;;;;;21.00;55.50;;;;;;5051666;28;1073;-69
2022/01/02 12:19:01;;;;;;;;;;;20.90;56.10;;;;;;5035125;28;1359;-69
2022/01/02 12:21:26;;;;;;;;;;;20.90;55.50;;;;;;5040835;28;1333;-69
2022/01/02 12:23:53;;;;;;;;;;;20.90;55.60;;;;;;5050428;28;1351;-69
2022/01/02 12:26:22;;;;;;;;;;;20.90;55.60;;;;;;5054870;28;1342;-69
2022/01/02 12:29:00;;;;;;;;;;;20.90;55.60;;;;;;5054975;28;1339;-69
2022/01/02 12:31:28;;;;;;;;;;;20.90;55.60;;;;;;5055840;28;1288;-69
2022/01/02 12:33:54;;;;;;;;;;;20.90;55.60;;;;;;5055502;28;1957;-69
2022/01/02 12:36:20;;;;;;;;;;;20.90;55.60;;;;;;5055411;28;1334;-69
2022/01/02 12:38:53;;;;;;;;;;;21.00;55.60;;;;;;5055915;28;1494;-69
2022/01/02 12:41:19;;;;;;;;;;;21.00;55.60;;;;;;5041499;28;1106;-69
2022/01/02 12:43:51;;;;;;;;;;;21.00;55.50;;;;;;5035324;28;1071;-69
2022/01/02 12:46:30;;;;;;;;;;;21.00;55.50;;;;;;5035214;28;1082;-69
2022/01/02 12:48:55;;;;;;;;;;;21.00;55.40;;;;;;5062627;22;3564;-71
2022/01/02 12:51:21;;;;;;;;;;;21.10;55.40;;;;;;5055961;28;1532;-71
2022/01/02 12:53:57;;;;;;;;;;;21.10;55.40;;;;;;5057374;28;1906;-71
2022/01/02 12:56:36;;;;;;;;;;;21.10;55.30;;;;;;5057337;28;1323;-71
2022/01/02 12:59:21;;;;;;;;;;;21.10;55.30;;;;;;5052414;28;1267;-71
2022/01/02 13:01:49;;;;;;;;;;;21.10;55.30;;;;;;5038694;28;1154;-71
2022/01/02 13:04:17;;;;;;;;;;;21.10;55.20;;;;;;5038403;28;1412;-71
2022/01/02 13:06:46;;;;;;;;;;;21.10;55.30;;;;;;5037213;28;1068;-71
2022/01/02 13:09:11;;;;;;;;;;;21.10;55.20;;;;;;5037014;28;1456;-71
2022/01/02 13:11:37;;;;;;;;;;;21.10;55.20;;;;;;5038646;28;1353;-71
2022/01/02 13:14:02;;;;;;;;;;;21.10;55.30;;;;;;5038372;28;1902;-72
2022/01/02 13:16:28;;;;;;;;;;;21.10;55.30;;;;;;5038237;28;1384;-71
2022/01/02 13:18:53;;;;;;;;;;;21.10;55.30;;;;;;5037202;28;1217;-71
2022/01/02 13:21:19;;;;;;;;;;;21.10;55.30;;;;;;5036924;28;1286;-71
2022/01/02 13:23:44;;;;;;;;;;;21.10;55.30;;;;;;5037070;28;1274;-71
2022/01/02 13:26:17;;;;;;;;;;;21.10;55.30;;;;;;5012060;28;1226;-71
2022/01/02 13:28:42;;;;;;;;;;;21.10;55.30;;;;;;5033304;28;1324;-71
2022/01/02 13:31:08;;;;;;;;;;;21.10;55.40;;;;;;5037695;28;1329;-71
2022/01/02 13:33:35;;;;;;;;;;;21.10;55.40;;;;;;5037896;28;1895;-70
2022/01/02 13:36:07;;;;;;;;;;;21.00;55.40;;;;;;5039029;28;1072;-71
2022/01/02 13:38:48;;;;;;;;;;;21.00;55.40;;;;;;5036002;28;1232;-71
2022/01/02 13:41:13;;;;;;;;;;;21.00;55.40;;;;;;5036675;28;796;-71
2022/01/02 13:43:39;;;;;;;;;;;21.00;55.40;;;;;;5035320;28;1351;-72
2022/01/02 13:46:04;;;;;;;;;;;21.00;55.50;;;;;;5037304;28;1134;-71
2022/01/02 13:48:30;;;;;;;;;;;21.00;55.50;;;;;;5039264;28;1350;-71
2022/01/02 13:50:58;;;;;;;;;;;21.00;55.50;;;;;;5039383;28;1331;-71
2022/01/02 13:53:24;;;;;;;;;;;21.00;55.60;;;;;;5038113;28;1344;-71
2022/01/02 13:55:53;;;;;;;;;;;21.00;55.60;;;;;;5039679;28;1871;-71
2022/01/02 13:58:23;;;;;;;;;;;21.00;55.60;;;;;;5015572;28;1281;-70
2022/01/02 14:00:49;;;;;;;;;;;21.00;55.60;;;;;;5033452;28;1353;-71
2022/01/02 14:03:41;;;;;;;;;;;21.00;55.60;;;;;;5025644;28;1112;-71
2022/01/02 14:06:08;;;;;;;;;;;20.90;55.60;;;;;;5035702;28;1205;-71
2022/01/02 14:08:43;;;;;;;;;;;20.90;55.60;;;;;;5038433;28;1309;-71
2022/01/02 14:11:15;;;;;;;;;;;20.90;55.70;;;;;;5038265;28;1262;-71
2022/01/02 14:13:48;;;;;;;;;;;20.90;55.70;;;;;;5038722;28;1961;-71
2022/01/02 14:16:21;;;;;;;;;;;20.90;55.70;;;;;;5026137;28;1267;-71
2022/01/02 14:18:47;;;;;;;;;;;20.90;55.80;;;;;;5039127;28;1204;-71
2022/01/02 14:21:12;;;;;;;;;;;20.90;55.80;;;;;;5039997;28;1134;-71
2022/01/02 14:23:37;;;;;;;;;;;20.90;55.80;;;;;;5038965;28;1297;-71
2022/01/02 14:26:03;;;;;;;;;;;20.90;55.80;;;;;;5039270;28;1094;-71
2022/01/02 14:28:28;;;;;;;;;;;20.90;55.90;;;;;;5038271;28;1378;-71
2022/01/02 14:30:54;;;;;;;;;;;20.80;55.80;;;;;;5039060;28;1364;-72
2022/01/02 14:33:21;;;;;;;;;;;20.80;55.80;;;;;;5021465;28;1356;-71